createdAt,value
2024-04-18T00:00:28.594Z,6.19
2024-04-18T00:01:28.654Z,6.06
2024-04-18T00:02:28.560Z,6.24
2024-04-18T00:03:28.722Z,6.12
2024-04-18T00:04:28.686Z,6.16
2024-04-18T00:05:28.575Z,6.35
2024-04-18T00:06:28.533Z,6.30
2024-04-18T00:07:28.557Z,6.11
2024-04-18T00:08:28.519Z,6.28
2024-04-18T00:09:28.526Z,6.24
2024-04-18T00:10:28.567Z,6.40
2024-04-18T00:11:28.465Z,6.32
2024-04-18T00:12:28.495Z,6.38
2024-04-18T00:13:28.497Z,6.18
2024-04-18T00:14:28.482Z,6.16
2024-04-18T00:15:28.605Z,6.13
2024-04-18T00:16:28.463Z,6.09
2024-04-18T00:17:28.522Z,6.15
2024-04-18T00:18:28.552Z,6.09
2024-04-18T00:19:28.432Z,6.16
2024-04-18T00:20:28.474Z,6.27
2024-04-18T00:21:28.437Z,6.25
2024-04-18T00:22:28.451Z,6.28
2024-04-18T00:23:28.484Z,6.30
2024-04-18T00:24:28.447Z,6.35
2024-04-18T00:25:28.404Z,6.45
2024-04-18T00:26:28.375Z,6.42
2024-04-18T00:27:28.388Z,6.53
2024-04-18T00:28:28.388Z,6.45
2024-04-18T00:29:28.360Z,6.49
2024-04-18T00:30:28.388Z,6.34
2024-04-18T00:31:28.369Z,6.53
2024-04-18T00:32:28.687Z,6.42
2024-04-18T00:33:28.535Z,6.56
2024-04-18T00:34:28.358Z,6.57
2024-04-18T00:35:28.341Z,6.50
2024-04-18T00:36:28.358Z,6.55
2024-04-18T00:37:28.311Z,6.52
2024-04-18T00:38:28.404Z,6.38
2024-04-18T00:39:28.348Z,6.35
2024-04-18T00:40:28.652Z,6.38
2024-04-18T00:41:28.398Z,6.32
2024-04-18T00:42:28.329Z,6.40
2024-04-18T00:43:28.265Z,6.37
2024-04-18T00:44:28.532Z,6.32
2024-04-18T00:45:28.456Z,6.32
2024-04-18T00:46:28.338Z,6.37
2024-04-18T00:47:28.302Z,6.50
2024-04-18T00:48:28.379Z,6.38
2024-04-18T00:49:28.279Z,6.52
2024-04-18T00:50:28.277Z,6.53
2024-04-18T00:51:28.328Z,6.43
2024-04-18T00:52:28.288Z,6.45
2024-04-18T00:53:28.191Z,6.35
2024-04-18T00:54:28.199Z,6.37
2024-04-18T00:55:28.196Z,6.31
2024-04-18T00:56:28.209Z,6.34
2024-04-18T00:57:28.174Z,6.37
2024-04-18T00:58:28.247Z,6.37
2024-04-18T00:59:28.173Z,6.42
2024-04-18T01:00:28.215Z,6.49
2024-04-18T01:01:28.217Z,6.37
2024-04-18T01:02:28.253Z,6.49
2024-04-18T01:03:28.261Z,6.28
2024-04-18T01:04:28.281Z,6.24
2024-04-18T01:05:28.112Z,6.25
2024-04-18T01:06:28.197Z,6.25
2024-04-18T01:07:28.101Z,6.27
2024-04-18T01:08:28.112Z,6.21
2024-04-18T01:09:28.109Z,6.15
2024-04-18T01:10:28.215Z,6.03
2024-04-18T01:11:28.140Z,6.05
2024-04-18T01:12:28.106Z,6.09
2024-04-18T01:13:28.142Z,6.15
2024-04-18T01:14:28.131Z,6.05
2024-04-18T01:15:28.162Z,6.18
2024-04-18T01:16:28.133Z,6.11
2024-04-18T01:17:28.225Z,6.02
2024-04-18T01:18:28.106Z,5.94
2024-04-18T01:19:28.086Z,6.05
2024-04-18T01:20:28.008Z,6.06
2024-04-18T01:21:28.075Z,6.09
2024-04-18T01:22:28.029Z,6.09
2024-04-18T01:23:28.017Z,6.08
2024-04-18T01:24:28.118Z,6.15
2024-04-18T01:25:27.983Z,6.21
2024-04-18T01:26:27.990Z,6.27
2024-04-18T01:27:27.970Z,6.25
2024-04-18T01:28:28.004Z,6.38
2024-04-18T01:29:28.300Z,6.47
2024-04-18T01:30:28.287Z,6.42
2024-04-18T01:31:27.954Z,6.37
2024-04-18T01:32:27.985Z,6.38
2024-04-18T01:33:27.997Z,6.52
2024-04-18T01:34:28.289Z,6.61
2024-04-18T01:35:27.960Z,6.47
2024-04-18T01:36:27.974Z,6.49
2024-04-18T01:37:27.958Z,6.50
2024-04-18T01:38:27.894Z,6.38
2024-04-18T01:39:27.952Z,6.34
2024-04-18T01:40:28.665Z,6.28
2024-04-18T01:41:27.880Z,6.18
2024-04-18T01:42:28.062Z,6.38
2024-04-18T01:43:27.860Z,6.25
2024-04-18T01:44:27.916Z,6.19
2024-04-18T01:45:27.973Z,6.02
2024-04-18T01:46:27.888Z,5.98
2024-04-18T01:47:27.906Z,6.08
2024-04-18T01:48:28.138Z,6.06
2024-04-18T01:49:28.031Z,6.15
2024-04-18T01:50:27.821Z,6.16
2024-04-18T01:51:27.861Z,6.30
2024-04-18T01:52:27.859Z,6.27
2024-04-18T01:53:27.798Z,6.28
2024-04-18T01:54:27.870Z,6.28
2024-04-18T01:55:27.829Z,6.31
2024-04-18T01:56:27.787Z,6.30
2024-04-18T01:57:27.799Z,6.40
2024-04-18T01:58:27.808Z,6.38
2024-04-18T01:59:27.753Z,6.40
2024-04-18T02:00:27.838Z,6.49
2024-04-18T02:01:27.806Z,6.34
2024-04-18T02:02:27.745Z,6.21
2024-04-18T02:03:28.066Z,6.05
2024-04-18T02:04:28.565Z,6.09
2024-04-18T02:05:27.736Z,6.11
2024-04-18T02:06:27.765Z,6.00
2024-04-18T02:07:27.746Z,6.13
2024-04-18T02:08:27.735Z,6.18
2024-04-18T02:09:27.777Z,6.19
2024-04-18T02:10:27.719Z,6.18
2024-04-18T02:11:27.734Z,6.28
2024-04-18T02:12:27.700Z,6.32
2024-04-18T02:13:27.714Z,6.40
2024-04-18T02:14:27.655Z,6.49
2024-04-18T02:15:27.760Z,6.45
2024-04-18T02:16:27.674Z,6.50
2024-04-18T02:17:27.721Z,6.38
2024-04-18T02:18:27.720Z,6.38
2024-04-18T02:19:27.638Z,6.47
2024-04-18T02:20:27.677Z,6.34
2024-04-18T02:21:27.684Z,6.46
2024-04-18T02:22:27.677Z,6.42
2024-04-18T02:23:27.750Z,6.46
2024-04-18T02:24:27.696Z,6.49
2024-04-18T02:25:27.633Z,6.47
2024-04-18T02:26:27.584Z,6.38
2024-04-18T02:27:27.592Z,6.46
2024-04-18T02:28:27.561Z,6.53
2024-04-18T02:29:27.759Z,6.40
2024-04-18T02:30:27.950Z,6.40
2024-04-18T02:31:27.542Z,6.70
2024-04-18T02:32:27.654Z,6.64
2024-04-18T02:33:27.553Z,6.63
2024-04-18T02:34:27.549Z,6.63
2024-04-18T02:35:27.531Z,6.61
2024-04-18T02:36:27.525Z,6.65
2024-04-18T02:37:27.507Z,6.71
2024-04-18T02:38:27.514Z,6.55
2024-04-18T02:39:27.528Z,6.63
2024-04-18T02:40:27.874Z,6.61
2024-04-18T02:41:27.492Z,6.74
2024-04-18T02:42:27.589Z,6.68
2024-04-18T02:43:27.468Z,6.61
2024-04-18T02:44:27.668Z,6.60
2024-04-18T02:45:27.531Z,6.67
2024-04-18T02:46:27.502Z,6.64
2024-04-18T02:47:27.807Z,6.64
2024-04-18T02:48:27.512Z,6.70
2024-04-18T02:49:27.427Z,6.65
2024-04-18T02:50:27.476Z,6.56
2024-04-18T02:51:27.461Z,6.73
2024-04-18T02:52:27.433Z,6.73
2024-04-18T02:53:27.408Z,6.71
2024-04-18T02:54:27.424Z,6.60
2024-04-18T02:55:27.689Z,6.63
2024-04-18T02:56:27.546Z,6.63
2024-04-18T02:57:27.436Z,6.65
2024-04-18T02:58:27.403Z,6.68
2024-04-18T02:59:27.570Z,6.61
2024-04-18T03:00:27.469Z,6.60
2024-04-18T03:01:27.442Z,6.57
2024-04-18T03:02:27.614Z,6.55
2024-04-18T03:03:27.405Z,6.61
2024-04-18T03:04:27.409Z,6.71
2024-04-18T03:05:27.386Z,6.64
2024-04-18T03:06:27.438Z,6.65
2024-04-18T03:07:27.376Z,6.57
2024-04-18T03:08:27.325Z,6.68
2024-04-18T03:09:27.463Z,6.50
2024-04-18T03:10:27.293Z,6.73
2024-04-18T03:11:27.337Z,6.70
2024-04-18T03:12:27.329Z,6.70
2024-04-18T03:13:27.306Z,6.70
2024-04-18T03:14:27.283Z,6.75
2024-04-18T03:15:27.294Z,6.79
2024-04-18T03:16:27.250Z,6.73
2024-04-18T03:17:27.317Z,6.91
2024-04-18T03:18:27.391Z,6.85
2024-04-18T03:19:27.281Z,7.00
2024-04-18T03:20:27.243Z,6.79
2024-04-18T03:21:27.282Z,6.89
2024-04-18T03:22:27.462Z,6.82
2024-04-18T03:23:27.234Z,6.91
2024-04-18T03:24:27.229Z,6.96
2024-04-18T03:25:27.197Z,6.81
2024-04-18T03:26:27.220Z,6.81
2024-04-18T03:27:27.313Z,6.75
2024-04-18T03:28:27.191Z,6.73
2024-04-18T03:29:27.173Z,6.88
2024-04-18T03:30:27.244Z,6.85
2024-04-18T03:31:27.192Z,6.74
2024-04-18T03:32:27.399Z,6.68
2024-04-18T03:33:27.191Z,6.68
2024-04-18T03:34:27.132Z,6.81
2024-04-18T03:35:27.178Z,6.70
2024-04-18T03:36:27.170Z,6.70
2024-04-18T03:37:27.154Z,6.75
2024-04-18T03:38:27.103Z,6.65
2024-04-18T03:39:27.160Z,6.64
2024-04-18T03:40:27.204Z,6.57
2024-04-18T03:41:27.107Z,6.53
2024-04-18T03:42:27.261Z,6.50
2024-04-18T03:43:27.378Z,6.52
2024-04-18T03:44:27.085Z,6.57
2024-04-18T03:45:27.095Z,6.65
2024-04-18T03:46:27.049Z,6.68
2024-04-18T03:47:27.076Z,6.68
2024-04-18T03:48:27.260Z,6.53
2024-04-18T03:49:27.079Z,6.67
2024-04-18T03:50:27.051Z,6.68
2024-04-18T03:51:27.028Z,6.64
2024-04-18T03:52:27.042Z,6.57
2024-04-18T03:53:27.041Z,6.60
2024-04-18T03:54:27.090Z,6.47
2024-04-18T03:55:27.168Z,6.60
2024-04-18T03:56:26.987Z,6.46
2024-04-18T03:57:27.055Z,6.45
2024-04-18T03:58:27.251Z,6.49
2024-04-18T03:59:27.407Z,6.52
2024-04-18T04:00:27.054Z,6.49
2024-04-18T04:01:27.251Z,6.49
2024-04-18T04:02:26.961Z,6.34
2024-04-18T04:03:26.991Z,6.37
2024-04-18T04:04:27.068Z,6.40
2024-04-18T04:05:26.911Z,6.30
2024-04-18T04:06:26.976Z,6.40
2024-04-18T04:07:26.958Z,6.42
2024-04-18T04:08:26.924Z,6.57
2024-04-18T04:09:26.994Z,6.45
2024-04-18T04:10:26.879Z,6.45
2024-04-18T04:11:26.957Z,6.50
2024-04-18T04:12:26.997Z,6.53
2024-04-18T04:13:27.107Z,6.40
2024-04-18T04:14:26.915Z,6.42
2024-04-18T04:15:26.934Z,6.43
2024-04-18T04:16:26.863Z,6.45
2024-04-18T04:17:26.880Z,6.43
2024-04-18T04:18:27.025Z,6.42
2024-04-18T04:19:27.121Z,6.45
2024-04-18T04:20:26.832Z,6.42
2024-04-18T04:21:26.963Z,6.49
2024-04-18T04:22:27.877Z,6.56
2024-04-18T04:23:26.812Z,6.53
2024-04-18T04:24:26.873Z,6.60
2024-04-18T04:25:26.781Z,6.64
2024-04-18T04:26:26.803Z,6.73
2024-04-18T04:27:26.828Z,6.64
2024-04-18T04:28:26.817Z,6.65
2024-04-18T04:29:26.757Z,6.61
2024-04-18T04:30:26.828Z,6.55
2024-04-18T04:31:26.753Z,6.42
2024-04-18T04:32:26.811Z,6.45
2024-04-18T04:33:26.759Z,6.55
2024-04-18T04:34:26.778Z,6.57
2024-04-18T04:35:26.729Z,6.56
2024-04-18T04:36:26.773Z,6.53
2024-04-18T04:37:26.985Z,6.50
2024-04-18T04:38:26.707Z,6.56
2024-04-18T04:39:26.729Z,6.60
2024-04-18T04:40:26.885Z,6.63
2024-04-18T04:41:26.706Z,6.55
2024-04-18T04:42:26.746Z,6.55
2024-04-18T04:43:26.716Z,6.67
2024-04-18T04:44:26.748Z,6.74
2024-04-18T04:45:26.673Z,6.63
2024-04-18T04:46:26.716Z,6.74
2024-04-18T04:47:26.700Z,6.65
2024-04-18T04:48:26.739Z,6.74
2024-04-18T04:49:26.770Z,6.74
2024-04-18T04:50:26.617Z,6.73
2024-04-18T04:51:26.665Z,6.70
2024-04-18T04:52:26.602Z,6.78
2024-04-18T04:53:26.603Z,6.67
2024-04-18T04:54:26.854Z,6.68
2024-04-18T04:55:26.619Z,6.73
2024-04-18T04:56:26.615Z,6.74
2024-04-18T04:57:26.610Z,6.68
2024-04-18T04:58:26.598Z,6.83
2024-04-18T04:59:26.556Z,6.81
2024-04-18T05:00:26.672Z,6.81
2024-04-18T05:01:26.613Z,6.79
2024-04-18T05:02:26.576Z,6.74
2024-04-18T05:03:26.622Z,6.74
2024-04-18T05:04:26.566Z,6.82
2024-04-18T05:05:26.542Z,6.78
2024-04-18T05:06:26.617Z,6.75
2024-04-18T05:07:26.549Z,6.74
2024-04-18T05:08:26.530Z,6.75
2024-04-18T05:09:26.576Z,6.83
2024-04-18T05:10:26.498Z,6.81
2024-04-18T05:11:26.650Z,6.79
2024-04-18T05:12:26.533Z,6.79
2024-04-18T05:13:26.464Z,6.68
2024-04-18T05:14:26.471Z,6.79
2024-04-18T05:15:26.490Z,6.79
2024-04-18T05:16:26.691Z,6.65
2024-04-18T05:17:26.432Z,6.74
2024-04-18T05:18:26.462Z,6.70
2024-04-18T05:19:26.442Z,6.70
2024-04-18T05:20:26.417Z,6.70
2024-04-18T05:21:26.472Z,6.74
2024-04-18T05:22:26.409Z,6.74
2024-04-18T05:23:26.444Z,6.68
2024-04-18T05:24:26.419Z,6.74
2024-04-18T05:25:26.973Z,6.74
2024-04-18T05:26:26.417Z,6.78
2024-04-18T05:27:26.623Z,6.70
2024-04-18T05:28:26.403Z,6.83
2024-04-18T05:29:26.355Z,6.92
2024-04-18T05:30:26.388Z,6.96
2024-04-18T05:31:26.345Z,7.00
2024-04-18T05:32:26.412Z,6.91
2024-04-18T05:33:26.437Z,7.10
2024-04-18T05:34:26.320Z,7.06
2024-04-18T05:35:26.419Z,7.08
2024-04-18T05:36:26.366Z,7.07
2024-04-18T05:37:26.366Z,7.26
2024-04-18T05:38:26.320Z,7.19
2024-04-18T05:39:26.421Z,7.18
2024-04-18T05:40:26.394Z,7.24
2024-04-18T05:41:26.313Z,7.24
2024-04-18T05:42:26.307Z,7.31
2024-04-18T05:43:26.329Z,7.26
2024-04-18T05:44:26.292Z,7.33
2024-04-18T05:45:26.286Z,7.34
2024-04-18T05:46:26.253Z,7.37
2024-04-18T05:47:26.351Z,7.29
2024-04-18T05:48:26.269Z,7.36
2024-04-18T05:49:26.271Z,7.46
2024-04-18T05:50:26.220Z,7.37
2024-04-18T05:51:26.371Z,7.40
2024-04-18T05:52:26.280Z,7.57
2024-04-18T05:53:26.241Z,7.50
2024-04-18T05:54:26.252Z,7.50
2024-04-18T05:55:26.211Z,7.50
2024-04-18T05:56:26.243Z,7.49
2024-04-18T05:57:26.257Z,7.36
2024-04-18T05:58:26.246Z,7.33
2024-04-18T05:59:26.188Z,7.37
2024-04-18T06:00:26.228Z,7.33
2024-04-18T06:01:26.210Z,7.29
2024-04-18T06:02:26.221Z,7.36
2024-04-18T06:03:26.189Z,7.21
2024-04-18T06:04:26.201Z,7.22
2024-04-18T06:05:26.129Z,7.15
2024-04-18T06:06:26.137Z,7.11
2024-04-18T06:07:26.127Z,7.08
2024-04-18T06:08:26.253Z,7.18
2024-04-18T06:09:26.298Z,6.96
2024-04-18T06:10:26.119Z,7.03
2024-04-18T06:11:26.180Z,7.01
2024-04-18T06:12:26.138Z,7.00
2024-04-18T06:13:26.113Z,7.03
2024-04-18T06:14:26.174Z,7.19
2024-04-18T06:15:26.069Z,7.22
2024-04-18T06:16:26.128Z,7.00
2024-04-18T06:17:26.074Z,7.07
2024-04-18T06:18:26.113Z,7.24
2024-04-18T06:19:29.449Z,7.16
2024-04-18T06:20:26.180Z,7.33
2024-04-18T06:21:26.079Z,7.28
2024-04-18T06:22:26.013Z,7.36
2024-04-18T06:23:26.031Z,7.22
2024-04-18T06:24:26.024Z,7.24
2024-04-18T06:25:26.014Z,7.28
2024-04-18T06:26:26.037Z,7.28
2024-04-18T06:27:26.083Z,7.36
2024-04-18T06:28:25.977Z,7.40
2024-04-18T06:29:25.980Z,7.31
2024-04-18T06:30:25.986Z,7.24
2024-04-18T06:31:26.023Z,7.25
2024-04-18T06:32:25.988Z,7.13
2024-04-18T06:33:26.124Z,7.18
2024-04-18T06:34:26.989Z,7.13
2024-04-18T06:35:25.922Z,7.13
2024-04-18T06:36:25.978Z,7.18
2024-04-18T06:37:25.916Z,7.18
2024-04-18T06:38:25.949Z,7.13
2024-04-18T06:39:25.985Z,7.25
2024-04-18T06:40:25.893Z,7.28
2024-04-18T06:41:25.909Z,7.28
2024-04-18T06:42:25.920Z,7.16
2024-04-18T06:43:25.936Z,7.18
2024-04-18T06:44:25.906Z,7.16
2024-04-18T06:45:25.908Z,7.11
2024-04-18T06:46:25.899Z,7.08
2024-04-18T06:47:25.906Z,7.08
2024-04-18T06:48:25.916Z,7.04
2024-04-18T06:49:25.840Z,7.16
2024-04-18T06:50:27.059Z,7.10
2024-04-18T06:51:26.073Z,7.18
2024-04-18T06:52:25.821Z,7.06
2024-04-18T06:53:25.816Z,7.10
2024-04-18T06:54:25.848Z,7.21
2024-04-18T06:55:25.817Z,7.21
2024-04-18T06:56:25.825Z,7.16
2024-04-18T06:57:25.835Z,7.29
2024-04-18T06:58:25.815Z,7.54
2024-04-18T06:59:25.765Z,7.55
2024-04-18T07:00:25.807Z,7.64
2024-04-18T07:01:25.907Z,7.73
2024-04-18T07:02:25.799Z,7.73
2024-04-18T07:03:26.096Z,7.81
2024-04-18T07:04:25.812Z,7.81
2024-04-18T07:05:25.804Z,7.84
2024-04-18T07:06:25.743Z,7.60
2024-04-18T07:07:25.711Z,7.68
2024-04-18T07:08:25.980Z,7.57
2024-04-18T07:09:25.767Z,7.74
2024-04-18T07:10:25.729Z,7.57
2024-04-18T07:11:25.720Z,7.55
2024-04-18T07:12:25.710Z,7.44
2024-04-18T07:13:25.730Z,7.28
2024-04-18T07:14:25.689Z,7.34
2024-04-18T07:15:25.705Z,7.33
2024-04-18T07:16:25.659Z,7.26
2024-04-18T07:17:25.805Z,7.31
2024-04-18T07:18:25.739Z,7.43
2024-04-18T07:19:25.696Z,7.57
2024-04-18T07:20:26.657Z,7.86
2024-04-18T07:21:25.712Z,8.14
2024-04-18T07:22:25.623Z,8.24
2024-04-18T07:23:25.616Z,8.24
2024-04-18T07:24:25.646Z,8.04
2024-04-18T07:25:25.622Z,8.10
2024-04-18T07:26:25.624Z,7.99
2024-04-18T07:27:25.615Z,7.99
2024-04-18T07:28:25.582Z,7.99
2024-04-18T07:29:25.588Z,8.02
2024-04-18T07:30:25.630Z,7.91
2024-04-18T07:31:25.566Z,7.83
2024-04-18T07:32:25.597Z,7.83
2024-04-18T07:33:25.674Z,7.91
2024-04-18T07:34:25.657Z,7.80
2024-04-18T07:35:25.552Z,7.84
2024-04-18T07:36:25.694Z,7.92
2024-04-18T07:37:27.779Z,8.01
2024-04-18T07:38:25.518Z,8.12
2024-04-18T07:39:25.526Z,8.10
2024-04-18T07:40:25.522Z,8.28
2024-04-18T07:41:25.512Z,8.16
2024-04-18T07:42:26.020Z,8.19
2024-04-18T07:43:25.511Z,8.41
2024-04-18T07:44:25.477Z,8.53
2024-04-18T07:45:25.502Z,8.57
2024-04-18T07:46:25.464Z,8.74
2024-04-18T07:47:25.560Z,8.71
2024-04-18T07:48:25.575Z,8.92
2024-04-18T07:49:25.521Z,9.03
2024-04-18T07:50:25.449Z,9.14
2024-04-18T07:51:25.478Z,9.18
2024-04-18T07:52:25.522Z,9.29
2024-04-18T07:53:26.467Z,9.33
2024-04-18T07:54:25.505Z,9.34
2024-04-18T07:55:25.404Z,9.33
2024-04-18T07:56:26.023Z,9.29
2024-04-18T07:57:25.871Z,9.26
2024-04-18T07:58:25.895Z,9.23
2024-04-18T07:59:26.163Z,9.11
2024-04-18T08:00:26.284Z,9.22
2024-04-18T08:01:26.847Z,9.29
2024-04-18T08:02:27.022Z,9.44
2024-04-18T08:03:27.473Z,9.57
2024-04-18T08:04:45.156Z,9.62
2024-04-18T08:05:28.392Z,9.75
2024-04-18T08:06:28.100Z,9.83
2024-04-18T08:07:28.401Z,9.80
2024-04-18T08:08:29.086Z,9.88
2024-04-18T08:09:27.925Z,9.85
2024-04-18T08:10:33.067Z,10.09
2024-04-18T08:11:53.357Z,10.09
2024-04-18T08:12:29.812Z,10.18
2024-04-18T08:13:29.948Z,10.36
2024-04-18T08:14:29.930Z,10.49
2024-04-18T08:16:26.420Z,10.68
2024-04-18T08:17:25.493Z,10.76
2024-04-18T08:18:25.240Z,10.76
2024-04-18T08:19:25.236Z,10.70
2024-04-18T08:20:25.275Z,10.82
2024-04-18T08:21:25.245Z,10.94
2024-04-18T08:22:25.227Z,10.94
2024-04-18T08:23:25.207Z,11.01
2024-04-18T08:24:25.217Z,10.93
2024-04-18T08:25:25.272Z,11.03
2024-04-18T08:26:25.253Z,10.94
2024-04-18T08:27:25.223Z,11.01
2024-04-18T08:28:25.174Z,11.01
2024-04-18T08:29:25.185Z,11.09
2024-04-18T08:30:25.240Z,10.94
2024-04-18T08:31:25.221Z,11.03
2024-04-18T08:32:25.145Z,10.90
2024-04-18T08:33:25.200Z,11.01
2024-04-18T08:34:26.055Z,11.03
2024-04-18T08:35:25.330Z,11.05
2024-04-18T08:36:25.211Z,11.15
2024-04-18T08:37:25.123Z,11.22
2024-04-18T08:38:25.112Z,11.15
2024-04-18T08:39:25.131Z,11.16
2024-04-18T08:40:25.124Z,11.22
2024-04-18T08:41:25.093Z,11.33
2024-04-18T08:42:25.107Z,11.43
2024-04-18T08:43:25.067Z,11.56
2024-04-18T08:44:25.061Z,11.54
2024-04-18T08:45:25.204Z,11.59
2024-04-18T08:46:25.082Z,11.71
2024-04-18T08:47:25.180Z,11.82
2024-04-18T08:48:25.257Z,11.95
2024-04-18T08:49:25.115Z,12.03
2024-04-18T08:50:25.019Z,11.95
2024-04-18T08:51:25.067Z,12.18
2024-04-18T08:52:25.004Z,12.26
2024-04-18T08:53:24.988Z,12.47
2024-04-18T08:54:24.990Z,12.58
2024-04-18T08:55:25.125Z,12.77
2024-04-18T08:56:24.991Z,12.69
2024-04-18T08:57:24.989Z,12.84
2024-04-18T08:58:24.981Z,12.73
2024-04-18T08:59:24.960Z,12.90
2024-04-18T09:00:25.010Z,12.93
2024-04-18T09:01:24.977Z,12.95
2024-04-18T09:02:24.940Z,12.99
2024-04-18T09:03:24.969Z,13.05
2024-04-18T09:04:24.947Z,13.04
2024-04-18T09:05:24.963Z,12.99
2024-04-18T09:06:24.946Z,12.86
2024-04-18T09:07:24.890Z,12.88
2024-04-18T09:08:24.899Z,12.76
2024-04-18T09:09:24.969Z,12.77
2024-04-18T09:10:24.996Z,12.86
2024-04-18T09:11:24.928Z,12.77
2024-04-18T09:12:24.936Z,12.90
2024-04-18T09:13:27.077Z,12.93
2024-04-18T09:14:24.840Z,13.05
2024-04-18T09:15:24.943Z,13.16
2024-04-18T09:16:24.863Z,13.35
2024-04-18T09:17:24.878Z,13.40
2024-04-18T09:18:24.930Z,13.40
2024-04-18T09:19:24.884Z,13.47
2024-04-18T09:20:24.803Z,13.49
2024-04-18T09:21:24.835Z,13.68
2024-04-18T09:22:24.783Z,13.79
2024-04-18T09:23:24.782Z,13.98
2024-04-18T09:24:24.830Z,14.19
2024-04-18T09:25:24.810Z,14.19
2024-04-18T09:26:24.759Z,14.38
2024-04-18T09:27:24.783Z,14.58
2024-04-18T09:28:24.750Z,14.19
2024-04-18T09:29:24.736Z,14.26
2024-04-18T09:30:24.807Z,14.04
2024-04-18T09:31:31.063Z,14.16
2024-04-18T09:32:25.742Z,14.05
2024-04-18T09:33:24.956Z,14.04
2024-04-18T09:34:24.816Z,14.12
2024-04-18T09:35:24.735Z,14.03
2024-04-18T09:36:24.741Z,14.04
2024-04-18T09:37:24.687Z,13.78
2024-04-18T09:38:24.673Z,13.47
2024-04-18T09:39:24.684Z,13.38
2024-04-18T09:40:24.689Z,13.32
2024-04-18T09:41:24.715Z,13.38
2024-04-18T09:42:24.704Z,13.40
2024-04-18T09:43:24.654Z,13.45
2024-04-18T09:44:27.085Z,13.21
2024-04-18T09:45:24.683Z,13.29
2024-04-18T09:46:24.653Z,13.09
2024-04-18T09:47:24.615Z,13.16
2024-04-18T09:48:25.046Z,12.98
2024-04-18T09:49:24.842Z,12.99
2024-04-18T09:50:24.606Z,12.62
2024-04-18T09:51:25.334Z,12.62
2024-04-18T09:52:24.591Z,12.47
2024-04-18T09:53:24.611Z,12.58
2024-04-18T09:54:24.674Z,12.59
2024-04-18T09:55:26.030Z,12.80
2024-04-18T09:56:24.555Z,12.81
2024-04-18T09:57:24.606Z,12.87
2024-04-18T09:58:24.537Z,12.80
2024-04-18T09:59:24.530Z,12.88
2024-04-18T10:00:24.608Z,12.83
2024-04-18T10:01:24.549Z,12.79
2024-04-18T10:02:24.618Z,12.86
2024-04-18T10:03:24.611Z,12.71
2024-04-18T10:04:24.530Z,12.93
2024-04-18T10:05:24.482Z,12.98
2024-04-18T10:06:24.508Z,12.93
2024-04-18T10:07:24.491Z,12.99
2024-04-18T10:08:24.490Z,12.98
2024-04-18T10:09:24.498Z,12.84
2024-04-18T10:10:24.472Z,12.98
2024-04-18T10:11:24.644Z,13.02
2024-04-18T10:12:24.455Z,13.13
2024-04-18T10:13:26.243Z,13.19
2024-04-18T10:14:24.497Z,13.20
2024-04-18T10:15:24.527Z,13.32
2024-04-18T10:16:25.039Z,13.46
2024-04-18T10:17:24.584Z,13.40
2024-04-18T10:18:24.510Z,13.49
2024-04-18T10:19:24.539Z,13.51
2024-04-18T10:20:24.413Z,13.42
2024-04-18T10:21:33.038Z,13.42
2024-04-18T10:23:24.389Z,13.51
2024-04-18T10:24:24.439Z,13.46
2024-04-18T10:25:24.405Z,13.86
2024-04-18T10:26:24.359Z,14.01
2024-04-18T10:27:24.527Z,14.08
2024-04-18T10:28:24.426Z,14.08
2024-04-18T10:29:24.323Z,14.22
2024-04-18T10:30:24.406Z,14.03
2024-04-18T10:31:24.350Z,14.15
2024-04-18T10:32:24.317Z,14.03
2024-04-18T10:33:24.384Z,14.04
2024-04-18T10:34:24.310Z,14.04
2024-04-18T10:35:24.374Z,13.96
2024-04-18T10:36:24.607Z,13.94
2024-04-18T10:37:24.419Z,14.01
2024-04-18T10:38:24.467Z,14.64
2024-04-18T10:39:24.506Z,15.30
2024-04-18T10:40:24.357Z,16.05
2024-04-18T10:41:24.282Z,16.70
2024-04-18T10:42:24.608Z,17.28
2024-04-18T10:43:24.239Z,17.43
2024-04-18T10:44:24.224Z,17.99
2024-04-18T10:45:24.284Z,18.30
2024-04-18T10:46:24.214Z,18.75
2024-04-18T10:47:24.278Z,19.15
2024-04-18T10:48:24.527Z,19.52
2024-04-18T10:49:24.279Z,20.02
2024-04-18T10:50:24.201Z,20.36
2024-04-18T10:51:24.263Z,20.70
2024-04-18T10:52:24.175Z,21.22
2024-04-18T10:53:24.220Z,21.62
2024-04-18T10:54:24.178Z,22.00
2024-04-18T10:55:24.233Z,22.33
2024-04-18T10:56:24.164Z,22.55
2024-04-18T10:57:24.166Z,22.98
2024-04-18T10:58:24.133Z,23.34
2024-04-18T10:59:24.159Z,23.64
2024-04-18T11:00:24.167Z,23.60
2024-04-18T11:01:24.154Z,23.04
2024-04-18T11:02:24.191Z,22.28
2024-04-18T11:03:24.147Z,21.93
2024-04-18T11:04:24.458Z,22.11
2024-04-18T11:05:24.083Z,22.44
2024-04-18T11:06:24.092Z,22.88
2024-04-18T11:07:24.067Z,23.41
2024-04-18T11:08:24.109Z,22.89
2024-04-18T11:09:24.087Z,22.36
2024-04-18T11:10:24.041Z,21.69
2024-04-18T11:11:24.075Z,21.28
2024-04-18T11:12:24.052Z,20.90
2024-04-18T11:13:24.014Z,21.47
2024-04-18T11:14:24.012Z,22.19
2024-04-18T11:15:24.104Z,22.70
2024-04-18T11:16:24.043Z,22.56
2024-04-18T11:17:23.999Z,22.22
2024-04-18T11:18:24.322Z,21.65
2024-04-18T11:19:24.151Z,20.88
2024-04-18T11:20:23.974Z,20.65
2024-04-18T11:21:24.031Z,21.03
2024-04-18T11:22:23.975Z,21.47
2024-04-18T11:23:32.625Z,22.04
2024-04-18T11:24:25.030Z,22.86
2024-04-18T11:25:23.935Z,22.15
2024-04-18T11:26:23.926Z,21.50
2024-04-18T11:27:23.969Z,21.11
2024-04-18T11:28:23.915Z,20.26
2024-04-18T11:29:24.004Z,19.45
2024-04-18T11:30:23.944Z,18.45
2024-04-18T11:31:24.058Z,17.83
2024-04-18T11:32:24.131Z,17.56
2024-04-18T11:33:24.039Z,17.31
2024-04-18T11:34:23.900Z,17.09
2024-04-18T11:35:23.875Z,16.83
2024-04-18T11:36:23.902Z,16.72
2024-04-18T11:37:23.849Z,16.52
2024-04-18T11:38:23.893Z,16.28
2024-04-18T11:39:23.862Z,16.17
2024-04-18T11:40:23.828Z,15.98
2024-04-18T11:41:23.826Z,15.73
2024-04-18T11:42:23.841Z,15.51
2024-04-18T11:43:23.830Z,15.65
2024-04-18T11:44:23.824Z,15.60
2024-04-18T11:45:23.879Z,15.44
2024-04-18T11:46:23.788Z,15.43
2024-04-18T11:47:23.877Z,15.25
2024-04-18T11:48:23.923Z,15.17
2024-04-18T11:49:23.812Z,14.97
2024-04-18T11:50:23.760Z,14.83
2024-04-18T11:51:23.794Z,14.79
2024-04-18T11:52:23.746Z,14.67
2024-04-18T11:53:23.737Z,14.69
2024-04-18T11:54:23.830Z,14.41
2024-04-18T11:55:23.729Z,14.41
2024-04-18T11:56:23.713Z,14.26
2024-04-18T11:57:23.787Z,14.22
2024-04-18T11:58:23.703Z,14.16
2024-04-18T11:59:23.709Z,13.96
2024-04-18T12:00:23.737Z,14.00
2024-04-18T12:01:23.740Z,13.85
2024-04-18T12:02:24.642Z,13.83
2024-04-18T12:03:23.747Z,13.88
2024-04-18T12:04:23.835Z,13.88
2024-04-18T12:05:23.701Z,13.88
2024-04-18T12:06:23.702Z,13.80
2024-04-18T12:07:23.670Z,13.83
2024-04-18T12:08:23.646Z,13.88
2024-04-18T12:09:23.631Z,13.94
2024-04-18T12:10:23.664Z,13.96
2024-04-18T12:11:23.677Z,13.88
2024-04-18T12:12:23.641Z,14.18
2024-04-18T12:13:23.620Z,14.23
2024-04-18T12:14:23.670Z,14.26
2024-04-18T12:15:23.699Z,14.21
2024-04-18T12:16:23.667Z,14.00
2024-04-18T12:17:23.570Z,13.91
2024-04-18T12:18:23.594Z,13.80
2024-04-18T12:19:23.591Z,13.85
2024-04-18T12:20:23.593Z,13.83
2024-04-18T12:21:23.616Z,13.94
2024-04-18T12:22:23.581Z,13.91
2024-04-18T12:23:23.532Z,13.93
2024-04-18T12:24:24.140Z,14.03
2024-04-18T12:25:23.534Z,14.00
2024-04-18T12:26:23.504Z,14.08
2024-04-18T12:27:23.516Z,13.97
2024-04-18T12:28:23.555Z,14.04
2024-04-18T12:29:23.490Z,13.97
2024-04-18T12:30:24.075Z,14.00
2024-04-18T12:31:23.508Z,14.01
2024-04-18T12:32:23.480Z,14.00
2024-04-18T12:33:23.520Z,14.08
2024-04-18T12:34:23.679Z,13.38
2024-04-18T12:35:23.473Z,13.26
2024-04-18T12:36:23.720Z,13.24
2024-04-18T12:37:23.448Z,13.63
2024-04-18T12:38:23.441Z,14.01
2024-04-18T12:39:23.454Z,14.61
2024-04-18T12:40:23.449Z,15.04
2024-04-18T12:41:23.431Z,15.29
2024-04-18T12:42:23.427Z,15.38
2024-04-18T12:43:23.374Z,15.20
2024-04-18T12:44:23.528Z,15.30
2024-04-18T12:45:23.391Z,15.29
2024-04-18T12:46:24.205Z,15.52
2024-04-18T12:47:23.399Z,15.45
2024-04-18T12:48:23.655Z,15.63
2024-04-18T12:49:23.406Z,15.72
2024-04-18T12:50:23.340Z,15.85
2024-04-18T12:51:23.391Z,16.24
2024-04-18T12:52:23.335Z,16.42
2024-04-18T12:53:23.304Z,16.59
2024-04-18T12:54:23.656Z,16.90
2024-04-18T12:55:23.292Z,17.01
2024-04-18T12:56:23.324Z,17.13
2024-04-18T12:57:23.363Z,17.24
2024-04-18T12:58:23.284Z,17.47
2024-04-18T12:59:23.265Z,17.62
2024-04-18T13:00:23.364Z,17.50
2024-04-18T13:01:23.289Z,17.20
2024-04-18T13:02:23.375Z,17.17
2024-04-18T13:03:23.349Z,16.99
2024-04-18T13:04:23.630Z,16.77
2024-04-18T13:05:23.226Z,16.54
2024-04-18T13:06:23.249Z,16.34
2024-04-18T13:07:23.236Z,16.03
2024-04-18T13:08:23.463Z,15.90
2024-04-18T13:09:23.229Z,15.76
2024-04-18T13:10:23.180Z,15.70